createdAt,value
2023-05-25T00:00:18.993Z,15.00
2023-05-25T00:01:20.762Z,15.00
2023-05-25T00:02:24.743Z,14.90
2023-05-25T00:03:28.257Z,15.00
2023-05-25T00:04:30.913Z,15.00
2023-05-25T00:05:32.683Z,15.00
2023-05-25T00:06:37.494Z,15.00
2023-05-25T00:07:41.373Z,15.00
2023-05-25T00:08:43.170Z,15.00
2023-05-25T00:09:46.463Z,15.00
2023-05-25T00:10:48.319Z,15.00
2023-05-25T00:11:50.137Z,15.00
2023-05-25T00:12:51.858Z,15.00
2023-05-25T00:13:54.512Z,15.00
2023-05-25T00:14:56.367Z,15.00
2023-05-25T00:15:58.397Z,14.90
2023-05-25T00:17:04.212Z,14.90
2023-05-25T00:18:07.324Z,14.90
2023-05-25T00:19:10.875Z,15.00
2023-05-25T00:20:13.950Z,15.00
2023-05-25T00:21:16.220Z,14.90
2023-05-25T00:22:18.174Z,15.00
2023-05-25T00:23:20.971Z,15.00
2023-05-25T00:24:22.701Z,15.00
2023-05-25T00:25:24.455Z,15.00
2023-05-25T00:26:26.180Z,14.90
2023-05-25T00:27:28.047Z,14.90
2023-05-25T00:28:29.814Z,14.90
2023-05-25T00:29:31.666Z,14.90
2023-05-25T00:30:33.504Z,14.90
2023-05-25T00:31:36.676Z,14.90
2023-05-25T00:32:38.862Z,14.90
2023-05-25T00:33:40.718Z,15.00
2023-05-25T00:34:42.410Z,14.90
2023-05-25T00:35:44.711Z,14.90
2023-05-25T00:36:49.987Z,14.90
2023-05-25T00:37:51.719Z,14.90
2023-05-25T00:38:53.473Z,14.90
2023-05-25T00:39:55.321Z,14.90
2023-05-25T00:40:57.242Z,14.90
2023-05-25T00:42:00.095Z,14.90
2023-05-25T00:43:02.724Z,14.90
2023-05-25T00:44:04.827Z,14.80
2023-05-25T00:45:07.252Z,14.80
2023-05-25T00:46:10.535Z,14.80
2023-05-25T00:47:13.391Z,15.00
2023-05-25T00:48:15.978Z,14.80
2023-05-25T00:49:19.857Z,14.80
2023-05-25T00:50:48.006Z,14.80
2023-05-25T00:51:51.818Z,14.90
2023-05-25T00:52:54.320Z,14.80
2023-05-25T00:53:56.418Z,14.80
2023-05-25T00:55:02.631Z,14.80
2023-05-25T00:56:14.309Z,14.80
2023-05-25T00:57:20.241Z,14.80
2023-05-25T00:58:24.493Z,14.80
2023-05-25T00:59:41.514Z,14.80
2023-05-25T01:00:47.663Z,14.80
2023-05-25T01:01:53.941Z,14.70
2023-05-25T01:02:59.380Z,14.70
2023-05-25T01:04:03.347Z,14.70
2023-05-25T01:05:07.603Z,14.70
2023-05-25T01:06:13.255Z,14.80
2023-05-25T01:07:19.080Z,14.80
2023-05-25T01:08:25.485Z,14.80
2023-05-25T01:09:30.835Z,14.80
2023-05-25T01:10:36.293Z,14.80
2023-05-25T01:11:42.851Z,14.80
2023-05-25T01:12:45.954Z,14.80
2023-05-25T01:13:50.228Z,14.80
2023-05-25T01:14:54.084Z,14.80
2023-05-25T01:15:57.108Z,14.80
2023-05-25T01:16:59.255Z,14.80
2023-05-25T01:18:01.911Z,14.80
2023-05-25T01:19:04.411Z,14.80
2023-05-25T01:20:11.700Z,14.80
2023-05-25T01:21:33.762Z,14.80
2023-05-25T01:22:42.998Z,14.80
2023-05-25T01:23:52.791Z,14.80
2023-05-25T01:25:02.361Z,14.80
2023-05-25T01:26:10.071Z,14.80
2023-05-25T01:27:21.239Z,14.80
2023-05-25T01:28:35.777Z,14.80
2023-05-25T01:29:42.217Z,14.80
2023-05-25T01:30:47.258Z,14.70
2023-05-25T01:31:50.556Z,14.70
2023-05-25T01:32:54.180Z,14.70
2023-05-25T01:33:56.934Z,14.70
2023-05-25T01:35:00.356Z,14.70
2023-05-25T01:36:03.252Z,14.70
2023-05-25T01:37:05.643Z,14.70
2023-05-25T01:38:08.792Z,14.70
2023-05-25T01:39:11.214Z,14.70
2023-05-25T01:40:14.532Z,14.70
2023-05-25T01:41:16.354Z,14.70
2023-05-25T01:42:18.070Z,14.70
2023-05-25T01:43:19.926Z,14.70
2023-05-25T01:44:21.993Z,14.60
2023-05-25T01:45:24.134Z,14.70
2023-05-25T01:46:35.537Z,14.60
2023-05-25T01:47:44.444Z,14.70
2023-05-25T01:49:04.273Z,14.60
2023-05-25T01:50:47.749Z,14.60
2023-05-25T01:52:14.656Z,14.60
2023-05-25T01:53:24.173Z,14.60
2023-05-25T01:54:37.817Z,14.50
2023-05-25T01:55:50.746Z,14.50
2023-05-25T01:56:54.551Z,14.50
2023-05-25T01:57:59.125Z,14.50
2023-05-25T01:59:03.759Z,14.50
2023-05-25T02:00:06.709Z,14.50
2023-05-25T02:01:15.182Z,14.40
2023-05-25T02:02:19.327Z,14.40
2023-05-25T02:03:21.913Z,14.40
2023-05-25T02:04:24.265Z,14.40
2023-05-25T02:05:27.965Z,14.40
2023-05-25T02:06:29.806Z,14.40
2023-05-25T02:07:31.663Z,14.30
2023-05-25T02:08:33.473Z,14.30
2023-05-25T02:09:35.385Z,14.30
2023-05-25T02:10:37.196Z,14.30
2023-05-25T02:11:38.950Z,14.30
2023-05-25T02:12:40.735Z,14.30
2023-05-25T02:13:42.553Z,14.20
2023-05-25T02:14:46.064Z,14.20
2023-05-25T02:15:47.822Z,14.20
2023-05-25T02:16:49.639Z,14.20
2023-05-25T02:17:51.485Z,14.20
2023-05-25T02:18:53.407Z,14.20
2023-05-25T02:19:55.223Z,14.20
2023-05-25T02:20:57.134Z,14.20
2023-05-25T02:21:58.886Z,14.20
2023-05-25T02:23:00.819Z,14.20
2023-05-25T02:24:03.099Z,14.20
2023-05-25T02:25:06.228Z,14.30
2023-05-25T02:26:08.075Z,14.20
2023-05-25T02:27:12.945Z,14.20
2023-05-25T02:28:15.076Z,14.20
2023-05-25T02:29:16.953Z,14.10
2023-05-25T02:30:18.692Z,14.10
2023-05-25T02:31:20.615Z,14.10
2023-05-25T02:32:22.571Z,14.10
2023-05-25T02:33:24.342Z,14.10
2023-05-25T02:34:26.217Z,14.10
2023-05-25T02:35:28.307Z,14.10
2023-05-25T02:36:30.052Z,14.10
2023-05-25T02:37:31.768Z,14.10
2023-05-25T02:38:33.505Z,14.00
2023-05-25T02:39:35.201Z,14.00
2023-05-25T02:40:36.925Z,14.00
2023-05-25T02:41:39.184Z,14.00
2023-05-25T02:42:41.046Z,14.00
2023-05-25T02:43:43.120Z,14.00
2023-05-25T02:44:48.361Z,14.00
2023-05-25T02:45:50.141Z,13.90
2023-05-25T02:46:51.909Z,14.00
2023-05-25T02:47:53.719Z,14.00
2023-05-25T02:48:55.572Z,14.00
2023-05-25T02:49:57.384Z,13.90
2023-05-25T02:50:59.109Z,13.90
2023-05-25T02:52:01.076Z,13.90
2023-05-25T02:53:03.309Z,13.90
2023-05-25T02:54:05.140Z,13.90
2023-05-25T02:55:10.134Z,13.90
2023-05-25T02:56:11.954Z,13.90
2023-05-25T02:57:13.804Z,13.90
2023-05-25T02:58:15.644Z,13.90
2023-05-25T02:59:17.589Z,13.80
2023-05-25T03:00:21.100Z,13.80
2023-05-25T03:01:25.390Z,13.90
2023-05-25T03:02:29.248Z,13.80
2023-05-25T03:03:31.396Z,13.80
2023-05-25T03:04:34.295Z,13.80
2023-05-25T03:05:36.735Z,13.80
2023-05-25T03:06:38.562Z,13.80
2023-05-25T03:07:41.109Z,13.80
2023-05-25T03:08:42.935Z,13.80
2023-05-25T03:09:44.678Z,13.80
2023-05-25T03:10:46.525Z,13.80
2023-05-25T03:11:48.363Z,13.80
2023-05-25T03:12:50.204Z,13.80
2023-05-25T03:13:52.289Z,13.80
2023-05-25T03:14:54.028Z,13.80
2023-05-25T03:15:55.768Z,13.80
2023-05-25T03:16:57.984Z,13.90
2023-05-25T03:18:01.593Z,13.90
2023-05-25T03:19:05.486Z,13.80
2023-05-25T03:20:08.063Z,13.80
2023-05-25T03:21:09.807Z,13.80
2023-05-25T03:22:12.805Z,13.80
2023-05-25T03:23:14.759Z,13.80
2023-05-25T03:24:16.473Z,13.80
2023-05-25T03:25:18.399Z,13.80
2023-05-25T03:26:20.220Z,13.80
2023-05-25T03:27:22.332Z,13.70
2023-05-25T03:28:24.136Z,13.70
2023-05-25T03:29:26.968Z,13.70
2023-05-25T03:30:29.683Z,13.70
2023-05-25T03:31:31.424Z,13.70
2023-05-25T03:32:33.996Z,13.70
2023-05-25T03:33:35.993Z,13.60
2023-05-25T03:34:37.843Z,13.50
2023-05-25T03:35:39.822Z,13.50
2023-05-25T03:36:45.932Z,13.50
2023-05-25T03:37:47.826Z,13.50
2023-05-25T03:38:49.652Z,13.60
2023-05-25T03:39:51.668Z,13.50
2023-05-25T03:40:53.675Z,13.50
2023-05-25T03:41:56.050Z,13.50
2023-05-25T03:42:57.956Z,13.40
2023-05-25T03:44:00.011Z,13.40
2023-05-25T03:45:02.003Z,13.40
2023-05-25T03:46:03.760Z,13.40
2023-05-25T03:47:06.228Z,13.40
2023-05-25T03:48:08.012Z,13.40
2023-05-25T03:49:14.058Z,13.40
2023-05-25T03:50:16.174Z,13.40
2023-05-25T03:51:17.863Z,13.50
2023-05-25T03:52:19.659Z,13.50
2023-05-25T03:53:21.363Z,13.40
2023-05-25T03:54:23.084Z,13.40
2023-05-25T03:55:24.811Z,13.50
2023-05-25T03:56:27.301Z,13.40
2023-05-25T03:57:29.053Z,13.40
2023-05-25T03:58:30.828Z,13.50
2023-05-25T03:59:33.002Z,13.50
2023-05-25T04:00:34.742Z,13.50
2023-05-25T04:01:38.935Z,13.50
2023-05-25T04:02:40.850Z,13.50
2023-05-25T04:03:42.803Z,13.50
2023-05-25T04:04:45.472Z,13.50
2023-05-25T04:05:47.373Z,13.50
2023-05-25T04:06:51.935Z,13.50
2023-05-25T04:07:53.690Z,13.50
2023-05-25T04:08:55.740Z,13.50
2023-05-25T04:10:00.741Z,13.50
2023-05-25T04:11:02.596Z,13.40
2023-05-25T04:12:04.566Z,13.40
2023-05-25T04:13:07.096Z,13.40
2023-05-25T04:14:08.778Z,13.40
2023-05-25T04:15:12.273Z,13.30
2023-05-25T04:16:14.603Z,13.30
2023-05-25T04:17:17.424Z,13.30
2023-05-25T04:18:20.475Z,13.30
2023-05-25T04:19:22.237Z,13.30
2023-05-25T04:20:24.047Z,13.30
2023-05-25T04:21:26.750Z,13.30
2023-05-25T04:22:28.530Z,13.30
2023-05-25T04:23:31.212Z,13.30
2023-05-25T04:24:34.179Z,13.30
2023-05-25T04:25:37.565Z,13.30
2023-05-25T04:26:39.608Z,13.40
2023-05-25T04:27:42.566Z,13.40
2023-05-25T04:28:44.682Z,13.40
2023-05-25T04:29:47.193Z,13.40
2023-05-25T04:30:49.087Z,13.50
2023-05-25T04:31:51.572Z,13.50
2023-05-25T04:32:54.938Z,13.50
2023-05-25T04:33:56.990Z,13.50
2023-05-25T04:34:59.194Z,13.60
2023-05-25T04:36:01.181Z,13.60
2023-05-25T04:37:05.508Z,13.60
2023-05-25T04:38:07.630Z,13.60
2023-05-25T04:39:09.566Z,13.60
2023-05-25T04:40:13.709Z,13.70
2023-05-25T04:41:17.174Z,13.70
2023-05-25T04:42:18.932Z,13.70
2023-05-25T04:43:20.746Z,13.80
2023-05-25T04:44:22.508Z,13.80
2023-05-25T04:45:24.356Z,13.90
2023-05-25T04:46:26.249Z,13.80
2023-05-25T04:47:28.102Z,13.80
2023-05-25T04:48:32.839Z,13.80
2023-05-25T04:49:34.713Z,13.90
2023-05-25T04:50:37.389Z,13.80
2023-05-25T04:51:39.300Z,13.80
2023-05-25T04:52:41.243Z,13.90
2023-05-25T04:53:42.996Z,13.90
2023-05-25T04:54:44.679Z,13.90
2023-05-25T04:55:53.576Z,13.90
2023-05-25T04:56:57.598Z,14.00
2023-05-25T04:57:59.343Z,13.90
2023-05-25T04:59:01.269Z,13.90
2023-05-25T05:00:04.012Z,14.00
2023-05-25T05:01:06.171Z,13.90
2023-05-25T05:02:08.866Z,14.00
2023-05-25T05:03:12.199Z,13.90
2023-05-25T05:04:16.465Z,14.00
2023-05-25T05:05:18.422Z,14.00
2023-05-25T05:06:20.622Z,14.00
2023-05-25T05:07:22.869Z,14.00
2023-05-25T05:08:24.787Z,14.00
2023-05-25T05:09:26.973Z,14.00
2023-05-25T05:10:28.680Z,14.00
2023-05-25T05:11:30.821Z,14.00
2023-05-25T05:12:32.584Z,14.00
2023-05-25T05:13:36.070Z,14.00
2023-05-25T05:14:37.793Z,14.00
2023-05-25T05:15:39.852Z,13.90
2023-05-25T05:16:41.777Z,13.90
2023-05-25T05:17:43.637Z,14.00
2023-05-25T05:18:45.570Z,14.00
2023-05-25T05:19:47.494Z,14.00
2023-05-25T05:20:49.344Z,14.10
2023-05-25T05:21:51.334Z,14.10
2023-05-25T05:22:53.575Z,14.10
2023-05-25T05:23:56.372Z,14.20
2023-05-25T05:24:59.494Z,14.30
2023-05-25T05:26:01.990Z,14.30
2023-05-25T05:27:04.945Z,14.30
2023-05-25T05:28:06.907Z,14.30
2023-05-25T05:29:09.050Z,14.30
2023-05-25T05:30:14.965Z,14.40
2023-05-25T05:31:18.573Z,14.40
2023-05-25T05:32:20.798Z,14.40
2023-05-25T05:33:24.218Z,14.50
2023-05-25T05:34:26.685Z,14.50
2023-05-25T05:35:28.498Z,14.60
2023-05-25T05:36:30.396Z,14.60
2023-05-25T05:37:32.253Z,14.60
2023-05-25T05:38:34.166Z,14.70
2023-05-25T05:39:36.486Z,14.70
2023-05-25T05:40:38.174Z,14.80
2023-05-25T05:41:43.909Z,14.90
2023-05-25T05:42:45.775Z,14.90
2023-05-25T05:43:50.478Z,15.00
2023-05-25T05:44:52.252Z,15.00
2023-05-25T05:45:54.036Z,15.10
2023-05-25T05:47:02.503Z,15.20
2023-05-25T05:48:05.057Z,15.20
2023-05-25T05:49:06.986Z,15.30
2023-05-25T05:50:09.209Z,15.30
2023-05-25T05:51:11.670Z,15.40
2023-05-25T05:52:13.577Z,15.50
2023-05-25T05:53:15.640Z,15.50
2023-05-25T05:54:17.408Z,15.60
2023-05-25T05:55:22.130Z,15.60
2023-05-25T05:56:24.149Z,15.70
2023-05-25T05:57:25.925Z,15.80
2023-05-25T05:58:27.876Z,15.80
2023-05-25T05:59:29.573Z,15.90
2023-05-25T06:00:31.405Z,15.90
2023-05-25T06:01:33.266Z,16.00
2023-05-25T06:02:35.152Z,16.10
2023-05-25T06:03:38.089Z,16.10
2023-05-25T06:04:40.412Z,16.20
2023-05-25T06:05:42.270Z,16.30
2023-05-25T06:06:45.421Z,16.30
2023-05-25T06:07:48.465Z,16.40
2023-05-25T06:08:50.396Z,16.40
2023-05-25T06:09:52.133Z,16.50
2023-05-25T06:10:53.836Z,16.60
2023-05-25T06:11:55.702Z,16.60
2023-05-25T06:12:57.460Z,16.60
2023-05-25T06:13:59.754Z,16.70
2023-05-25T06:15:01.640Z,16.70
2023-05-25T06:16:05.788Z,16.80
2023-05-25T06:17:07.876Z,16.90
2023-05-25T06:18:10.105Z,17.00
2023-05-25T06:19:12.454Z,16.90
2023-05-25T06:20:15.205Z,16.90
2023-05-25T06:21:17.178Z,17.00
2023-05-25T06:22:18.854Z,17.10
2023-05-25T06:23:20.789Z,17.00
2023-05-25T06:24:22.534Z,17.00
2023-05-25T06:25:25.473Z,17.10
2023-05-25T06:26:27.313Z,17.10
2023-05-25T06:27:29.107Z,17.10
2023-05-25T06:28:30.886Z,17.20
2023-05-25T06:29:32.801Z,17.20
2023-05-25T06:30:34.586Z,17.20
2023-05-25T06:31:36.644Z,17.20
2023-05-25T06:32:38.520Z,17.10
2023-05-25T06:33:40.379Z,17.10
2023-05-25T06:34:42.166Z,17.20
2023-05-25T06:35:44.102Z,17.20
2023-05-25T06:36:46.898Z,17.20
2023-05-25T06:37:49.522Z,17.20
2023-05-25T06:38:51.422Z,17.30
2023-05-25T06:39:54.879Z,17.30
2023-05-25T06:41:02.565Z,17.30
2023-05-25T06:42:04.543Z,17.30
2023-05-25T06:43:06.735Z,17.30
2023-05-25T06:44:08.942Z,17.30
2023-05-25T06:45:11.391Z,17.30
2023-05-25T06:46:18.171Z,17.30
2023-05-25T06:47:20.415Z,17.30
2023-05-25T06:48:23.581Z,17.20
2023-05-25T06:49:25.514Z,17.10
2023-05-25T06:50:27.464Z,17.10
2023-05-25T06:51:29.946Z,17.00
2023-05-25T06:52:31.815Z,17.10
2023-05-25T06:53:33.601Z,17.00
2023-05-25T06:54:35.952Z,17.00
2023-05-25T06:55:37.913Z,17.00
2023-05-25T06:56:39.782Z,17.00
2023-05-25T06:57:41.739Z,17.00
2023-05-25T06:58:43.603Z,17.00
2023-05-25T06:59:45.644Z,17.00
2023-05-25T07:00:47.683Z,17.00
2023-05-25T07:01:50.010Z,16.90
2023-05-25T07:02:51.982Z,16.90
2023-05-25T07:03:53.904Z,17.10
2023-05-25T07:04:55.840Z,16.90
2023-05-25T07:05:58.660Z,16.90
2023-05-25T07:07:00.409Z,16.90
2023-05-25T07:08:02.165Z,16.90
2023-05-25T07:09:04.061Z,16.90
2023-05-25T07:10:06.915Z,16.90
2023-05-25T07:11:12.394Z,16.90
2023-05-25T07:12:14.660Z,16.90
2023-05-25T07:13:16.436Z,16.80
2023-05-25T07:14:18.653Z,16.80
2023-05-25T07:15:21.819Z,16.80
2023-05-25T07:16:23.962Z,16.80
2023-05-25T07:17:27.023Z,16.90
2023-05-25T07:18:29.145Z,16.90
2023-05-25T07:19:31.217Z,16.90
2023-05-25T07:20:34.405Z,16.90
2023-05-25T07:21:36.878Z,16.90
2023-05-25T07:22:39.720Z,16.90
2023-05-25T07:23:41.678Z,16.90
2023-05-25T07:24:43.506Z,16.90
2023-05-25T07:25:45.960Z,16.90
2023-05-25T07:26:49.573Z,16.90
2023-05-25T07:27:55.110Z,16.90
2023-05-25T07:28:56.900Z,16.90
2023-05-25T07:30:00.266Z,16.90
2023-05-25T07:31:02.127Z,16.90
2023-05-25T07:32:04.227Z,16.90
2023-05-25T07:33:06.051Z,16.90
2023-05-25T07:34:08.063Z,16.90
2023-05-25T07:35:09.939Z,16.90
2023-05-25T07:36:12.554Z,16.90
2023-05-25T07:37:14.313Z,16.90
2023-05-25T07:38:16.005Z,17.00
2023-05-25T07:39:17.804Z,17.00
2023-05-25T07:40:19.609Z,17.00
2023-05-25T07:41:21.686Z,17.00
2023-05-25T07:42:23.465Z,17.00
2023-05-25T07:43:25.313Z,17.00
2023-05-25T07:44:27.290Z,17.00
2023-05-25T07:45:29.018Z,17.10
2023-05-25T07:46:32.092Z,17.10
2023-05-25T07:47:33.918Z,17.20
2023-05-25T07:48:35.811Z,17.30
2023-05-25T07:49:37.761Z,17.20
2023-05-25T07:50:39.574Z,17.30
2023-05-25T07:51:42.103Z,17.30
2023-05-25T07:52:45.042Z,17.30
2023-05-25T07:53:46.822Z,17.30
2023-05-25T07:54:50.194Z,17.40
2023-05-25T07:55:54.364Z,17.40
2023-05-25T07:56:56.296Z,17.40
2023-05-25T07:57:58.184Z,17.40
2023-05-25T07:59:01.085Z,17.40
2023-05-25T08:00:06.242Z,17.40
2023-05-25T08:01:10.751Z,17.50
2023-05-25T08:02:12.564Z,17.50
2023-05-25T08:03:14.475Z,17.60
2023-05-25T08:04:16.535Z,17.60
2023-05-25T08:05:18.534Z,17.60
2023-05-25T08:06:20.740Z,17.60
2023-05-25T08:07:22.796Z,17.70
2023-05-25T08:08:24.800Z,17.80
2023-05-25T08:09:26.672Z,17.80
2023-05-25T08:10:32.142Z,17.80
2023-05-25T08:11:33.920Z,17.90
2023-05-25T08:12:47.965Z,17.90
2023-05-25T08:13:51.209Z,18.00
2023-05-25T08:14:56.431Z,18.00
2023-05-25T08:15:59.158Z,18.10
2023-05-25T08:17:01.657Z,18.10
2023-05-25T08:18:04.539Z,18.10
2023-05-25T08:19:06.369Z,18.20
2023-05-25T08:20:09.134Z,18.20
2023-05-25T08:21:11.001Z,18.30
2023-05-25T08:22:12.740Z,18.30
2023-05-25T08:23:14.605Z,18.30
2023-05-25T08:24:16.351Z,18.40
2023-05-25T08:25:18.132Z,18.40
2023-05-25T08:26:37.897Z,18.60
2023-05-25T08:27:41.581Z,18.40
2023-05-25T08:28:43.299Z,18.40
2023-05-25T08:29:49.166Z,18.40
2023-05-25T08:30:51.147Z,18.40
2023-05-25T08:31:52.892Z,18.50
2023-05-25T08:32:54.648Z,18.50
2023-05-25T08:33:56.478Z,18.40
2023-05-25T08:34:58.180Z,18.50
2023-05-25T08:35:59.856Z,18.50
2023-05-25T08:37:01.653Z,18.50
2023-05-25T08:38:04.655Z,18.50
2023-05-25T08:39:08.219Z,18.60
2023-05-25T08:40:16.048Z,18.60
2023-05-25T08:41:19.659Z,18.70
2023-05-25T08:42:21.766Z,18.70
2023-05-25T08:43:23.809Z,18.70
2023-05-25T08:44:27.438Z,18.80
2023-05-25T08:45:49.299Z,18.80
2023-05-25T08:46:52.874Z,18.90
2023-05-25T08:47:59.365Z,19.00
2023-05-25T08:49:05.424Z,19.00
2023-05-25T08:50:09.794Z,19.10
2023-05-25T08:51:16.093Z,19.10
2023-05-25T08:52:22.568Z,19.10
2023-05-25T08:53:25.160Z,19.10
2023-05-25T08:54:34.494Z,19.20
2023-05-25T08:55:39.310Z,19.20
2023-05-25T08:56:47.142Z,19.20
2023-05-25T08:58:02.770Z,19.20
2023-05-25T08:59:16.629Z,19.20
2023-05-25T09:00:25.252Z,19.20
2023-05-25T09:01:31.924Z,19.10
2023-05-25T09:02:49.157Z,19.30
2023-05-25T09:03:53.864Z,19.20
2023-05-25T09:04:56.229Z,19.20
2023-05-25T09:05:58.114Z,19.20
2023-05-25T09:07:09.623Z,19.30
2023-05-25T09:08:13.576Z,19.30
2023-05-25T09:09:15.464Z,19.40
2023-05-25T09:10:17.614Z,19.40
2023-05-25T09:11:35.958Z,19.50
2023-05-25T09:12:41.590Z,19.50
2023-05-25T09:13:43.326Z,19.60
2023-05-25T09:14:48.387Z,19.60
2023-05-25T09:15:52.063Z,19.60
2023-05-25T09:16:54.173Z,19.60
2023-05-25T09:17:56.018Z,19.60
2023-05-25T09:18:58.845Z,19.60
2023-05-25T09:20:00.705Z,19.50
2023-05-25T09:21:03.027Z,19.50
2023-05-25T09:22:14.791Z,19.50
2023-05-25T09:23:19.420Z,19.50
2023-05-25T09:24:23.062Z,19.60
2023-05-25T09:25:27.618Z,19.60
2023-05-25T09:26:29.342Z,19.60
2023-05-25T09:27:37.381Z,19.70
2023-05-25T09:28:47.618Z,19.60
2023-05-25T09:29:52.668Z,19.70
2023-05-25T09:30:56.274Z,19.70
2023-05-25T09:32:01.163Z,19.70
2023-05-25T09:33:19.270Z,19.70
2023-05-25T09:34:21.069Z,19.70
2023-05-25T09:35:23.561Z,19.80
2023-05-25T09:36:26.208Z,19.80
2023-05-25T09:37:28.277Z,20.00
2023-05-25T09:38:30.838Z,19.80
2023-05-25T09:39:33.669Z,19.80
2023-05-25T09:40:36.186Z,19.80
2023-05-25T09:41:41.102Z,19.80
2023-05-25T09:42:42.848Z,19.70
2023-05-25T09:43:54.788Z,19.70
2023-05-25T09:45:04.369Z,19.60
2023-05-25T09:46:06.615Z,19.70
2023-05-25T09:47:09.181Z,19.60
2023-05-25T09:48:12.185Z,19.60
2023-05-25T09:49:14.157Z,19.60
2023-05-25T09:50:18.005Z,19.60
2023-05-25T09:51:20.324Z,19.70
2023-05-25T09:52:22.526Z,19.70
2023-05-25T09:53:24.217Z,19.60
2023-05-25T09:54:26.940Z,19.70
2023-05-25T09:55:36.804Z,19.70
2023-05-25T09:56:46.317Z,19.70
2023-05-25T09:57:53.158Z,19.70
2023-05-25T09:58:56.381Z,19.70
2023-05-25T09:59:58.252Z,19.80
2023-05-25T10:01:00.988Z,19.80
2023-05-25T10:02:03.118Z,19.90
2023-05-25T10:03:08.299Z,19.90
2023-05-25T10:04:10.408Z,20.00
2023-05-25T10:05:12.237Z,20.00
2023-05-25T10:06:20.444Z,20.10
2023-05-25T10:07:23.197Z,20.20
2023-05-25T10:08:28.532Z,20.30
2023-05-25T10:09:31.276Z,20.30
2023-05-25T10:10:33.471Z,20.40
2023-05-25T10:11:39.190Z,20.40
2023-05-25T10:12:42.483Z,20.50
2023-05-25T10:13:46.292Z,20.50
2023-05-25T10:14:50.880Z,20.60
2023-05-25T10:15:55.350Z,20.70
2023-05-25T10:17:04.588Z,20.80
2023-05-25T10:18:16.578Z,20.90
2023-05-25T10:19:41.360Z,20.90
2023-05-25T10:20:46.743Z,21.00
2023-05-25T10:21:56.321Z,21.00
2023-05-25T10:23:05.052Z,21.20
2023-05-25T10:24:24.506Z,21.20
2023-05-25T10:25:46.851Z,21.30
2023-05-25T10:26:53.682Z,21.30
2023-05-25T10:28:35.935Z,21.30
2023-05-25T10:29:39.376Z,21.30
2023-05-25T10:30:43.074Z,21.40
2023-05-25T10:31:46.113Z,21.50
2023-05-25T10:32:48.596Z,21.40
2023-05-25T10:33:52.623Z,21.40
2023-05-25T10:34:56.947Z,21.40
2023-05-25T10:36:09.275Z,21.40
2023-05-25T10:37:14.424Z,21.30
2023-05-25T10:38:20.257Z,21.40
2023-05-25T10:39:25.189Z,21.40
2023-05-25T10:40:27.364Z,21.40
2023-05-25T10:41:29.145Z,21.50
2023-05-25T10:42:31.291Z,21.50
2023-05-25T10:43:33.470Z,21.50
2023-05-25T10:44:35.643Z,21.70
2023-05-25T10:45:41.115Z,21.70
2023-05-25T10:46:44.015Z,21.90
2023-05-25T10:47:53.618Z,21.80
2023-05-25T10:49:04.331Z,21.80
2023-05-25T10:50:06.961Z,21.90
2023-05-25T10:51:11.990Z,21.90
2023-05-25T10:52:19.462Z,22.00
2023-05-25T10:53:21.628Z,22.00
2023-05-25T10:54:25.960Z,22.10
2023-05-25T10:55:32.193Z,22.20
2023-05-25T10:56:34.225Z,22.20
2023-05-25T10:57:38.656Z,22.20
2023-05-25T10:58:44.554Z,22.30
2023-05-25T10:59:55.547Z,22.30
2023-05-25T11:00:58.533Z,22.40
2023-05-25T11:02:07.622Z,22.30
2023-05-25T11:03:11.297Z,22.30
2023-05-25T11:04:13.039Z,22.40
2023-05-25T11:05:27.859Z,22.50
2023-05-25T11:06:41.845Z,22.40
2023-05-25T11:07:57.903Z,22.50
2023-05-25T11:09:04.318Z,22.50
2023-05-25T11:10:13.338Z,22.50
2023-05-25T11:11:15.137Z,22.60
2023-05-25T11:12:21.669Z,22.60
2023-05-25T11:13:38.745Z,22.70
2023-05-25T11:14:45.838Z,22.70
2023-05-25T11:16:08.088Z,22.70
2023-05-25T11:17:15.262Z,22.70
2023-05-25T11:18:17.580Z,22.60
2023-05-25T11:19:23.304Z,22.50
2023-05-25T11:20:30.638Z,22.70
2023-05-25T11:21:44.153Z,22.50
2023-05-25T11:22:46.014Z,22.60
2023-05-25T11:24:10.998Z,22.60
2023-05-25T11:25:36.754Z,22.70
2023-05-25T11:26:59.917Z,22.70
2023-05-25T11:28:09.438Z,22.80
2023-05-25T11:29:16.134Z,22.90
2023-05-25T11:30:20.125Z,22.80
2023-05-25T11:31:32.856Z,22.80
2023-05-25T11:32:39.944Z,22.80
2023-05-25T11:33:44.949Z,22.80
2023-05-25T11:34:48.947Z,22.80
2023-05-25T11:35:52.137Z,22.80
2023-05-25T11:36:56.093Z,22.80
2023-05-25T11:37:58.188Z,22.90
2023-05-25T11:39:11.552Z,22.90
2023-05-25T11:40:23.259Z,23.00
2023-05-25T11:41:25.042Z,23.00
2023-05-25T11:42:29.167Z,23.10
2023-05-25T11:43:34.065Z,23.20
2023-05-25T11:44:37.031Z,23.30
2023-05-25T11:45:39.610Z,23.30
2023-05-25T11:46:43.988Z,23.40
2023-05-25T11:47:46.164Z,23.50
2023-05-25T11:48:55.309Z,23.50
2023-05-25T11:49:57.334Z,23.50
2023-05-25T11:51:06.774Z,23.70
2023-05-25T11:52:10.539Z,23.70
2023-05-25T11:53:13.731Z,23.80
2023-05-25T11:54:27.670Z,23.80
2023-05-25T11:55:29.486Z,23.90
2023-05-25T11:56:35.781Z,23.90
2023-05-25T11:57:42.851Z,24.00
2023-05-25T11:58:46.414Z,23.90
2023-05-25T11:59:52.466Z,24.00
2023-05-25T12:00:54.657Z,23.80
2023-05-25T12:02:01.413Z,23.80
2023-05-25T12:03:03.325Z,23.80
2023-05-25T12:04:09.945Z,23.70
2023-05-25T12:05:12.033Z,23.70
2023-05-25T12:06:28.444Z,23.80
2023-05-25T12:07:31.899Z,23.70
2023-05-25T12:08:37.616Z,23.70
2023-05-25T12:09:39.394Z,23.70
2023-05-25T12:10:52.365Z,23.60
2023-05-25T12:11:55.319Z,23.60
2023-05-25T12:12:58.493Z,23.50
2023-05-25T12:14:01.290Z,23.50
2023-05-25T12:15:03.136Z,23.50
2023-05-25T12:16:05.145Z,23.50
2023-05-25T12:17:07.204Z,23.50
2023-05-25T12:18:09.459Z,23.40
2023-05-25T12:19:13.016Z,23.40
2023-05-25T12:20:16.947Z,23.40
2023-05-25T12:21:21.001Z,23.40
2023-05-25T12:22:22.783Z,23.40
2023-05-25T12:23:25.511Z,23.40
2023-05-25T12:24:27.677Z,23.50
2023-05-25T12:25:38.756Z,23.50
2023-05-25T12:27:04.701Z,23.60
2023-05-25T12:28:13.470Z,23.70
2023-05-25T12:29:15.901Z,23.70
2023-05-25T12:30:17.682Z,23.70
2023-05-25T12:31:23.902Z,23.90
2023-05-25T12:32:25.939Z,23.90
2023-05-25T12:33:27.779Z,24.00
2023-05-25T12:34:29.895Z,24.00
2023-05-25T12:35:45.864Z,24.00
2023-05-25T12:36:52.199Z,24.10
2023-05-25T12:38:14.378Z,24.00
2023-05-25T12:39:18.458Z,24.00
2023-05-25T12:40:21.262Z,24.10
2023-05-25T12:41:23.015Z,24.20
2023-05-25T12:42:30.215Z,24.20
2023-05-25T12:43:39.788Z,24.30
2023-05-25T12:44:43.971Z,24.40
2023-05-25T12:45:47.225Z,24.40
2023-05-25T12:46:50.212Z,24.40
2023-05-25T12:47:52.552Z,24.40
2023-05-25T12:48:54.307Z,24.40
2023-05-25T12:50:16.013Z,24.50
2023-05-25T12:51:17.930Z,24.40
2023-05-25T12:52:37.106Z,24.40
2023-05-25T12:53:52.613Z,24.40
2023-05-25T12:54:54.345Z,24.40
2023-05-25T12:56:03.802Z,24.50
2023-05-25T12:57:06.731Z,24.50
2023-05-25T12:58:08.584Z,24.40
2023-05-25T12:59:16.575Z,24.40
2023-05-25T13:00:26.407Z,24.40
2023-05-25T13:01:28.230Z,24.40
2023-05-25T13:02:31.267Z,24.40
2023-05-25T13:03:33.629Z,24.50
2023-05-25T13:04:36.766Z,24.30
2023-05-25T13:05:38.860Z,24.40
2023-05-25T13:06:40.753Z,24.40
2023-05-25T13:07:42.456Z,24.60
2023-05-25T13:08:45.534Z,24.50
2023-05-25T13:09:48.229Z,24.70
2023-05-25T13:10:51.543Z,24.80
2023-05-25T13:11:57.631Z,24.90
2023-05-25T13:12:59.752Z,25.00
2023-05-25T13:14:01.838Z,25.10
2023-05-25T13:15:03.950Z,25.00
2023-05-25T13:16:07.519Z,25.00
2023-05-25T13:17:09.262Z,25.10
2023-05-25T13:18:10.984Z,25.30
2023-05-25T13:19:12.772Z,25.20
2023-05-25T13:20:17.074Z,25.20
2023-05-25T13:21:20.204Z,25.30
2023-05-25T13:22:21.927Z,25.40
2023-05-25T13:23:27.257Z,25.40
2023-05-25T13:24:29.255Z,25.50
2023-05-25T13:25:30.987Z,25.50
2023-05-25T13:26:32.962Z,25.60
2023-05-25T13:27:38.083Z,25.50
2023-05-25T13:28:39.849Z,25.50
2023-05-25T13:29:42.971Z,25.40
2023-05-25T13:30:44.962Z,25.70
2023-05-25T13:31:48.329Z,25.40
2023-05-25T13:32:51.738Z,25.40
2023-05-25T13:33:54.219Z,25.60
2023-05-25T13:34:59.752Z,25.50
2023-05-25T13:36:10.580Z,25.50
2023-05-25T13:37:12.575Z,25.60
2023-05-25T13:38:17.174Z,25.60
2023-05-25T13:39:20.052Z,25.50
2023-05-25T13:40:24.094Z,25.50
2023-05-25T13:41:26.796Z,25.50
2023-05-25T13:42:28.687Z,25.50
2023-05-25T13:43:31.195Z,25.50
2023-05-25T13:44:34.598Z,25.50
2023-05-25T13:45:36.375Z,25.50